Kauhajoki Airport


Codes: EFKJ/KHJ
Name: Kauhajoki Airport
City:
Country: Finland
Elevation: 407 ft.
Wikipedia:

Photos at Kauhajoki Airport


   Photos courtesy of SpottingLog. You can add your own sightings and photos by signing up for a free trial today.



No photos found.

Weather at Kauhajoki Airport


Time (UTC)DescriptionTempratureWindCloud coverageVisibilityPressureHumidity
15-Apr-2024 18:00Overcast Clouds4°C7 mph, N100%10000m999hPa74%
15-Apr-2024 21:00Overcast Clouds3°C7 mph, N100%0m999hPa82%
16-Apr-2024 00:00Overcast Clouds2°C7 mph, N100%0m999hPa89%
16-Apr-2024 03:00Overcast Clouds1°C7 mph, N100%10000m999hPa92%
16-Apr-2024 06:00Overcast Clouds1°C9 mph, N100%10000m999hPa87%
16-Apr-2024 09:00Overcast Clouds2°C7 mph, N100%10000m1000hPa77%
16-Apr-2024 12:00Overcast Clouds2°C7 mph, N100%10000m1000hPa80%
16-Apr-2024 15:00Overcast Clouds2°C7 mph, N100%10000m1000hPa80%
16-Apr-2024 18:00Overcast Clouds1°C7 mph, N100%10000m1001hPa92%
16-Apr-2024 21:00Light Snow1°C7 mph, N100%212m1001hPa97%
17-Apr-2024 00:00Light Snow-1°C7 mph, NE99%1612m1002hPa94%
17-Apr-2024 03:00Light Snow-2°C9 mph, NE98%738m1002hPa92%
17-Apr-2024 06:00Light Snow-2°C9 mph, NE99%6927m1004hPa79%
17-Apr-2024 09:00Light Snow-2°C11 mph, NE100%1956m1005hPa79%
17-Apr-2024 12:00Light Snow-1°C11 mph, NE100%6005m1007hPa77%
17-Apr-2024 15:00Light Snow-2°C9 mph, NE100%420m1008hPa84%
17-Apr-2024 18:00Overcast Clouds-2°C7 mph, NE100%10000m1010hPa66%
17-Apr-2024 21:00Overcast Clouds-3°C7 mph, NE100%10000m1011hPa73%
18-Apr-2024 00:00Overcast Clouds-4°C7 mph, N100%10000m1013hPa77%
18-Apr-2024 03:00Overcast Clouds-5°C7 mph, N100%10000m1014hPa71%
18-Apr-2024 06:00Overcast Clouds-3°C9 mph, NE100%10000m1016hPa47%
18-Apr-2024 09:00Overcast Clouds-1°C9 mph, NE100%10000m1016hPa39%
18-Apr-2024 12:00Overcast Clouds1°C7 mph, NE98%10000m1016hPa36%
18-Apr-2024 15:00Overcast Clouds1°C7 mph, NE100%10000m1016hPa51%
18-Apr-2024 18:00Overcast Clouds-2°C4 mph, NE100%10000m1017hPa68%
18-Apr-2024 21:00Overcast Clouds-4°C4 mph, NE95%10000m1017hPa80%
19-Apr-2024 00:00Broken Clouds-5°C4 mph, NE70%10000m1016hPa85%
19-Apr-2024 03:00Scattered Clouds-6°C4 mph, NE29%10000m1015hPa88%
19-Apr-2024 06:00Scattered Clouds-4°C9 mph, NE48%10000m1014hPa64%
19-Apr-2024 09:00Overcast Clouds-1°C9 mph, NE100%10000m1012hPa48%
19-Apr-2024 12:00Overcast Clouds1°C11 mph, NE100%10000m1009hPa46%
19-Apr-2024 15:00Overcast Clouds-0°C11 mph, NE100%10000m1008hPa56%
19-Apr-2024 18:00Overcast Clouds-3°C9 mph, NE100%10000m1007hPa71%
19-Apr-2024 21:00Overcast Clouds-4°C9 mph, N100%10000m1006hPa73%
20-Apr-2024 00:00Overcast Clouds-4°C9 mph, N100%10000m1004hPa75%
20-Apr-2024 03:00Light Snow-5°C9 mph, N100%483m1004hPa88%
20-Apr-2024 06:00Light Snow-5°C11 mph, N100%10000m1004hPa75%
20-Apr-2024 09:00Overcast Clouds-3°C11 mph, N100%10000m1005hPa64%
20-Apr-2024 12:00Overcast Clouds-2°C11 mph, N100%10000m1007hPa63%
20-Apr-2024 15:00Overcast Clouds-1°C9 mph, NW100%10000m1009hPa58%